sensor_id;sensor_type;location;lat;lon;timestamp;P1;durP1;ratioP1;P2;durP2;ratioP2
2684;SDS011;1352;48.446;9.156;2022-10-16T00:01:16;1.37;;;1.20;;
2684;SDS011;1352;48.446;9.156;2022-10-16T00:03:44;1.47;;;1.03;;
2684;SDS011;1352;48.446;9.156;2022-10-16T00:06:14;1.97;;;1.40;;
2684;SDS011;1352;48.446;9.156;2022-10-16T00:08:41;1.30;;;1.20;;
2684;SDS011;1352;48.446;9.156;2022-10-16T00:11:10;1.20;;;1.10;;
2684;SDS011;1352;48.446;9.156;2022-10-16T00:13:39;1.57;;;0.80;;
2684;SDS011;1352;48.446;9.156;2022-10-16T00:16:08;1.10;;;1.10;;
2684;SDS011;1352;48.446;9.156;2022-10-16T00:18:38;3.23;;;1.00;;
2684;SDS011;1352;48.446;9.156;2022-10-16T00:21:06;1.10;;;1.00;;
2684;SDS011;1352;48.446;9.156;2022-10-16T00:23:35;1.40;;;0.97;;
2684;SDS011;1352;48.446;9.156;2022-10-16T00:26:03;1.20;;;1.00;;
2684;SDS011;1352;48.446;9.156;2022-10-16T00:28:33;1.73;;;1.13;;
2684;SDS011;1352;48.446;9.156;2022-10-16T00:31:02;1.27;;;1.10;;
2684;SDS011;1352;48.446;9.156;2022-10-16T00:33:30;1.30;;;1.23;;
2684;SDS011;1352;48.446;9.156;2022-10-16T00:35:59;1.90;;;1.00;;
2684;SDS011;1352;48.446;9.156;2022-10-16T00:38:26;4.13;;;1.10;;
2684;SDS011;1352;48.446;9.156;2022-10-16T00:40:53;5.67;;;1.70;;
2684;SDS011;1352;48.446;9.156;2022-10-16T00:43:33;2.10;;;1.10;;
2684;SDS011;1352;48.446;9.156;2022-10-16T00:46:03;7.63;;;1.40;;
2684;SDS011;1352;48.446;9.156;2022-10-16T00:48:35;6.93;;;1.87;;
2684;SDS011;1352;48.446;9.156;2022-10-16T00:51:03;4.60;;;1.77;;
2684;SDS011;1352;48.446;9.156;2022-10-16T00:53:32;4.03;;;1.23;;
2684;SDS011;1352;48.446;9.156;2022-10-16T00:56:00;2.93;;;1.00;;
2684;SDS011;1352;48.446;9.156;2022-10-16T00:58:27;3.33;;;1.13;;
2684;SDS011;1352;48.446;9.156;2022-10-16T01:00:54;1.20;;;1.10;;
2684;SDS011;1352;48.446;9.156;2022-10-16T01:03:23;1.80;;;1.20;;
2684;SDS011;1352;48.446;9.156;2022-10-16T01:05:55;1.30;;;1.20;;
2684;SDS011;1352;48.446;9.156;2022-10-16T01:08:36;2.70;;;1.10;;
2684;SDS011;1352;48.446;9.156;2022-10-16T01:11:12;1.40;;;1.30;;
2684;SDS011;1352;48.446;9.156;2022-10-16T01:13:50;1.97;;;1.50;;
2684;SDS011;1352;48.446;9.156;2022-10-16T01:16:22;1.87;;;1.40;;
2684;SDS011;1352;48.446;9.156;2022-10-16T01:18:57;1.30;;;1.20;;
2684;SDS011;1352;48.446;9.156;2022-10-16T01:21:33;1.30;;;1.10;;
2684;SDS011;1352;48.446;9.156;2022-10-16T01:24:08;1.30;;;1.20;;
2684;SDS011;1352;48.446;9.156;2022-10-16T01:29:30;1.30;;;1.20;;
2684;SDS011;1352;48.446;9.156;2022-10-16T01:32:05;1.60;;;1.10;;
2684;SDS011;1352;48.446;9.156;2022-10-16T01:34:37;5.50;;;1.20;;
2684;SDS011;1352;48.446;9.156;2022-10-16T01:37:10;3.63;;;1.63;;
2684;SDS011;1352;48.446;9.156;2022-10-16T01:39:42;1.60;;;1.50;;
2684;SDS011;1352;48.446;9.156;2022-10-16T01:42:17;1.33;;;1.23;;
2684;SDS011;1352;48.446;9.156;2022-10-16T01:44:47;1.83;;;1.20;;
2684;SDS011;1352;48.446;9.156;2022-10-16T01:47:17;4.20;;;1.80;;
2684;SDS011;1352;48.446;9.156;2022-10-16T01:49:46;2.23;;;1.70;;
2684;SDS011;1352;48.446;9.156;2022-10-16T01:52:14;5.70;;;1.60;;
2684;SDS011;1352;48.446;9.156;2022-10-16T01:54:46;3.43;;;1.47;;
2684;SDS011;1352;48.446;9.156;2022-10-16T01:57:18;3.57;;;1.70;;
2684;SDS011;1352;48.446;9.156;2022-10-16T01:59:48;4.60;;;1.77;;
2684;SDS011;1352;48.446;9.156;2022-10-16T02:02:19;1.97;;;1.67;;
2684;SDS011;1352;48.446;9.156;2022-10-16T02:04:49;3.83;;;1.60;;
2684;SDS011;1352;48.446;9.156;2022-10-16T02:07:21;2.00;;;1.50;;
2684;SDS011;1352;48.446;9.156;2022-10-16T02:09:49;2.17;;;1.60;;
2684;SDS011;1352;48.446;9.156;2022-10-16T02:12:19;2.50;;;1.80;;
2684;SDS011;1352;48.446;9.156;2022-10-16T02:14:52;2.63;;;2.00;;
2684;SDS011;1352;48.446;9.156;2022-10-16T02:17:20;2.93;;;1.83;;
2684;SDS011;1352;48.446;9.156;2022-10-16T02:19:48;4.53;;;2.03;;
2684;SDS011;1352;48.446;9.156;2022-10-16T02:22:21;4.27;;;1.70;;
2684;SDS011;1352;48.446;9.156;2022-10-16T02:27:25;1.47;;;1.27;;
2684;SDS011;1352;48.446;9.156;2022-10-16T02:29:58;1.90;;;1.63;;
2684;SDS011;1352;48.446;9.156;2022-10-16T02:32:32;1.60;;;1.50;;
2684;SDS011;1352;48.446;9.156;2022-10-16T02:35:02;2.10;;;1.33;;
2684;SDS011;1352;48.446;9.156;2022-10-16T02:37:30;4.40;;;1.43;;
2684;SDS011;1352;48.446;9.156;2022-10-16T02:39:59;2.00;;;1.60;;
2684;SDS011;1352;48.446;9.156;2022-10-16T02:42:31;2.10;;;1.57;;
2684;SDS011;1352;48.446;9.156;2022-10-16T02:45:00;2.27;;;1.50;;
2684;SDS011;1352;48.446;9.156;2022-10-16T02:47:26;1.50;;;1.40;;
2684;SDS011;1352;48.446;9.156;2022-10-16T02:49:53;2.80;;;1.20;;
2684;SDS011;1352;48.446;9.156;2022-10-16T02:52:20;1.50;;;1.40;;
2684;SDS011;1352;48.446;9.156;2022-10-16T02:54:48;2.03;;;1.80;;
2684;SDS011;1352;48.446;9.156;2022-10-16T02:57:15;1.53;;;1.43;;
2684;SDS011;1352;48.446;9.156;2022-10-16T02:59:43;1.70;;;1.60;;
2684;SDS011;1352;48.446;9.156;2022-10-16T03:02:10;2.43;;;1.70;;
2684;SDS011;1352;48.446;9.156;2022-10-16T03:04:38;1.47;;;1.30;;
2684;SDS011;1352;48.446;9.156;2022-10-16T03:07:05;2.30;;;1.40;;
2684;SDS011;1352;48.446;9.156;2022-10-16T03:09:32;1.43;;;1.33;;
2684;SDS011;1352;48.446;9.156;2022-10-16T03:11:59;2.73;;;2.03;;
2684;SDS011;1352;48.446;9.156;2022-10-16T03:14:27;1.83;;;1.73;;
2684;SDS011;1352;48.446;9.156;2022-10-16T03:16:55;3.53;;;1.73;;
2684;SDS011;1352;48.446;9.156;2022-10-16T03:19:22;4.73;;;1.77;;
2684;SDS011;1352;48.446;9.156;2022-10-16T03:21:49;1.90;;;1.80;;
2684;SDS011;1352;48.446;9.156;2022-10-16T03:24:16;2.57;;;1.57;;
2684;SDS011;1352;48.446;9.156;2022-10-16T03:26:43;8.10;;;2.30;;
2684;SDS011;1352;48.446;9.156;2022-10-16T03:29:10;2.60;;;1.40;;
2684;SDS011;1352;48.446;9.156;2022-10-16T03:31:37;1.97;;;1.87;;
2684;SDS011;1352;48.446;9.156;2022-10-16T03:34:06;2.10;;;1.70;;
2684;SDS011;1352;48.446;9.156;2022-10-16T03:36:33;1.93;;;1.60;;
2684;SDS011;1352;48.446;9.156;2022-10-16T03:39:00;3.33;;;1.90;;
2684;SDS011;1352;48.446;9.156;2022-10-16T03:41:27;2.40;;;1.60;;
2684;SDS011;1352;48.446;9.156;2022-10-16T03:43:54;1.97;;;1.83;;
2684;SDS011;1352;48.446;9.156;2022-10-16T03:46:21;10.30;;;2.80;;
2684;SDS011;1352;48.446;9.156;2022-10-16T03:48:48;2.00;;;1.83;;
2684;SDS011;1352;48.446;9.156;2022-10-16T03:51:17;3.17;;;2.20;;
2684;SDS011;1352;48.446;9.156;2022-10-16T03:53:44;3.13;;;1.77;;
2684;SDS011;1352;48.446;9.156;2022-10-16T03:56:11;1.83;;;1.60;;
2684;SDS011;1352;48.446;9.156;2022-10-16T03:58:38;2.33;;;2.10;;
2684;SDS011;1352;48.446;9.156;2022-10-16T04:01:05;3.63;;;2.03;;
2684;SDS011;1352;48.446;9.156;2022-10-16T04:03:32;2.00;;;1.90;;
2684;SDS011;1352;48.446;9.156;2022-10-16T04:05:59;3.70;;;1.77;;
2684;SDS011;1352;48.446;9.156;2022-10-16T04:08:27;1.87;;;1.70;;
2684;SDS011;1352;48.446;9.156;2022-10-16T04:10:55;2.23;;;2.03;;
2684;SDS011;1352;48.446;9.156;2022-10-16T04:13:22;1.77;;;1.67;;
2684;SDS011;1352;48.446;9.156;2022-10-16T04:15:49;2.03;;;1.83;;
2684;SDS011;1352;48.446;9.156;2022-10-16T04:18:16;2.37;;;1.60;;
2684;SDS011;1352;48.446;9.156;2022-10-16T04:20:43;1.87;;;1.77;;
2684;SDS011;1352;48.446;9.156;2022-10-16T04:23:10;5.20;;;2.00;;
2684;SDS011;1352;48.446;9.156;2022-10-16T04:25:38;2.30;;;1.70;;
2684;SDS011;1352;48.446;9.156;2022-10-16T04:28:05;2.23;;;1.87;;
2684;SDS011;1352;48.446;9.156;2022-10-16T04:30:32;3.23;;;1.90;;
2684;SDS011;1352;48.446;9.156;2022-10-16T04:32:59;2.50;;;2.30;;
2684;SDS011;1352;48.446;9.156;2022-10-16T04:35:26;3.43;;;1.67;;
2684;SDS011;1352;48.446;9.156;2022-10-16T04:37:54;1.60;;;1.50;;
2684;SDS011;1352;48.446;9.156;2022-10-16T04:40:23;2.13;;;1.93;;
2684;SDS011;1352;48.446;9.156;2022-10-16T04:42:52;3.90;;;2.40;;
2684;SDS011;1352;48.446;9.156;2022-10-16T04:45:19;1.80;;;1.70;;
2684;SDS011;1352;48.446;9.156;2022-10-16T04:47:46;1.77;;;1.60;;
2684;SDS011;1352;48.446;9.156;2022-10-16T04:50:13;1.93;;;1.50;;
2684;SDS011;1352;48.446;9.156;2022-10-16T04:52:40;2.80;;;2.07;;
2684;SDS011;1352;48.446;9.156;2022-10-16T04:55:07;5.97;;;2.00;;
2684;SDS011;1352;48.446;9.156;2022-10-16T04:57:34;2.23;;;2.03;;
2684;SDS011;1352;48.446;9.156;2022-10-16T05:00:03;3.00;;;1.60;;
2684;SDS011;1352;48.446;9.156;2022-10-16T05:02:31;2.33;;;2.13;;
2684;SDS011;1352;48.446;9.156;2022-10-16T05:04:58;4.60;;;1.77;;
2684;SDS011;1352;48.446;9.156;2022-10-16T05:07:25;1.80;;;1.70;;
2684;SDS011;1352;48.446;9.156;2022-10-16T05:09:52;4.90;;;2.57;;
2684;SDS011;1352;48.446;9.156;2022-10-16T05:12:19;1.97;;;1.87;;
2684;SDS011;1352;48.446;9.156;2022-10-16T05:14:46;4.20;;;2.77;;
2684;SDS011;1352;48.446;9.156;2022-10-16T05:17:15;2.50;;;1.73;;
2684;SDS011;1352;48.446;9.156;2022-10-16T05:19:42;1.87;;;1.67;;
2684;SDS011;1352;48.446;9.156;2022-10-16T05:22:09;2.80;;;1.70;;
2684;SDS011;1352;48.446;9.156;2022-10-16T05:24:36;1.90;;;1.80;;
2684;SDS011;1352;48.446;9.156;2022-10-16T05:27:03;2.70;;;2.23;;
2684;SDS011;1352;48.446;9.156;2022-10-16T05:29:30;3.10;;;1.90;;
2684;SDS011;1352;48.446;9.156;2022-10-16T05:31:57;3.20;;;1.73;;
2684;SDS011;1352;48.446;9.156;2022-10-16T05:34:25;4.80;;;1.93;;
2684;SDS011;1352;48.446;9.156;2022-10-16T05:36:52;3.17;;;1.90;;
2684;SDS011;1352;48.446;9.156;2022-10-16T05:39:19;6.03;;;2.30;;
2684;SDS011;1352;48.446;9.156;2022-10-16T05:41:47;2.30;;;2.00;;
2684;SDS011;1352;48.446;9.156;2022-10-16T05:44:16;3.17;;;1.77;;
2684;SDS011;1352;48.446;9.156;2022-10-16T05:46:43;2.10;;;2.00;;
2684;SDS011;1352;48.446;9.156;2022-10-16T05:49:10;2.00;;;1.80;;
2684;SDS011;1352;48.446;9.156;2022-10-16T05:51:38;1.77;;;1.67;;
2684;SDS011;1352;48.446;9.156;2022-10-16T05:54:06;2.30;;;1.70;;
2684;SDS011;1352;48.446;9.156;2022-10-16T05:56:33;2.43;;;2.23;;
2684;SDS011;1352;48.446;9.156;2022-10-16T05:59:00;1.90;;;1.80;;
2684;SDS011;1352;48.446;9.156;2022-10-16T06:01:29;2.40;;;1.90;;
2684;SDS011;1352;48.446;9.156;2022-10-16T06:03:56;2.27;;;2.00;;
2684;SDS011;1352;48.446;9.156;2022-10-16T06:06:24;3.90;;;1.93;;
2684;SDS011;1352;48.446;9.156;2022-10-16T06:08:54;3.83;;;1.80;;
2684;SDS011;1352;48.446;9.156;2022-10-16T06:11:23;4.00;;;2.27;;
2684;SDS011;1352;48.446;9.156;2022-10-16T06:13:51;5.73;;;2.67;;
2684;SDS011;1352;48.446;9.156;2022-10-16T06:16:21;3.83;;;1.93;;
2684;SDS011;1352;48.446;9.156;2022-10-16T06:18:50;3.97;;;2.10;;
2684;SDS011;1352;48.446;9.156;2022-10-16T06:21:18;4.50;;;1.90;;
2684;SDS011;1352;48.446;9.156;2022-10-16T06:23:48;2.27;;;1.93;;
2684;SDS011;1352;48.446;9.156;2022-10-16T06:26:17;3.40;;;2.47;;
2684;SDS011;1352;48.446;9.156;2022-10-16T06:28:46;3.50;;;2.43;;
2684;SDS011;1352;48.446;9.156;2022-10-16T06:31:13;4.37;;;2.33;;
2684;SDS011;1352;48.446;9.156;2022-10-16T06:33:40;4.57;;;2.10;;
2684;SDS011;1352;48.446;9.156;2022-10-16T06:36:09;3.83;;;1.80;;
2684;SDS011;1352;48.446;9.156;2022-10-16T06:38:37;5.00;;;2.27;;
2684;SDS011;1352;48.446;9.156;2022-10-16T06:41:05;2.23;;;2.03;;
2684;SDS011;1352;48.446;9.156;2022-10-16T06:43:34;2.83;;;1.50;;
2684;SDS011;1352;48.446;9.156;2022-10-16T06:46:02;3.90;;;2.10;;
2684;SDS011;1352;48.446;9.156;2022-10-16T06:48:30;2.20;;;2.10;;
2684;SDS011;1352;48.446;9.156;2022-10-16T06:50:58;3.43;;;2.60;;
2684;SDS011;1352;48.446;9.156;2022-10-16T06:53:26;2.20;;;1.83;;
2684;SDS011;1352;48.446;9.156;2022-10-16T06:55:54;2.87;;;2.40;;
2684;SDS011;1352;48.446;9.156;2022-10-16T06:58:21;2.50;;;1.93;;
2684;SDS011;1352;48.446;9.156;2022-10-16T07:00:50;2.80;;;2.00;;
2684;SDS011;1352;48.446;9.156;2022-10-16T07:03:23;2.30;;;1.97;;
2684;SDS011;1352;48.446;9.156;2022-10-16T07:05:50;1.90;;;1.80;;
2684;SDS011;1352;48.446;9.156;2022-10-16T07:08:17;2.30;;;2.10;;
2684;SDS011;1352;48.446;9.156;2022-10-16T07:10:44;1.97;;;1.70;;
2684;SDS011;1352;48.446;9.156;2022-10-16T07:13:11;6.30;;;2.50;;
2684;SDS011;1352;48.446;9.156;2022-10-16T07:15:39;5.20;;;2.23;;
2684;SDS011;1352;48.446;9.156;2022-10-16T07:18:07;2.70;;;2.03;;
2684;SDS011;1352;48.446;9.156;2022-10-16T07:20:34;2.27;;;2.00;;
2684;SDS011;1352;48.446;9.156;2022-10-16T07:23:02;3.20;;;2.20;;
2684;SDS011;1352;48.446;9.156;2022-10-16T07:25:29;4.23;;;2.07;;
2684;SDS011;1352;48.446;9.156;2022-10-16T07:27:56;3.00;;;1.80;;
2684;SDS011;1352;48.446;9.156;2022-10-16T07:30:23;3.83;;;2.10;;
2684;SDS011;1352;48.446;9.156;2022-10-16T07:32:50;2.17;;;2.07;;
2684;SDS011;1352;48.446;9.156;2022-10-16T07:35:19;3.83;;;2.00;;
2684;SDS011;1352;48.446;9.156;2022-10-16T07:37:46;2.60;;;2.40;;
2684;SDS011;1352;48.446;9.156;2022-10-16T07:40:13;10.40;;;2.67;;
2684;SDS011;1352;48.446;9.156;2022-10-16T07:42:40;7.80;;;2.60;;
2684;SDS011;1352;48.446;9.156;2022-10-16T07:45:08;4.30;;;2.07;;
2684;SDS011;1352;48.446;9.156;2022-10-16T07:47:35;4.00;;;2.20;;
2684;SDS011;1352;48.446;9.156;2022-10-16T07:50:02;2.07;;;1.90;;
2684;SDS011;1352;48.446;9.156;2022-10-16T07:52:31;3.03;;;2.30;;
2684;SDS011;1352;48.446;9.156;2022-10-16T07:54:58;6.53;;;2.30;;
2684;SDS011;1352;48.446;9.156;2022-10-16T07:57:25;2.50;;;2.10;;
2684;SDS011;1352;48.446;9.156;2022-10-16T07:59:52;3.43;;;3.13;;
2684;SDS011;1352;48.446;9.156;2022-10-16T08:02:19;3.60;;;2.47;;
2684;SDS011;1352;48.446;9.156;2022-10-16T08:04:46;3.97;;;2.80;;
2684;SDS011;1352;48.446;9.156;2022-10-16T08:07:15;2.83;;;2.47;;
2684;SDS011;1352;48.446;9.156;2022-10-16T08:09:44;2.13;;;2.00;;
2684;SDS011;1352;48.446;9.156;2022-10-16T08:12:10;3.97;;;2.50;;
2684;SDS011;1352;48.446;9.156;2022-10-16T08:14:37;4.23;;;2.63;;
2684;SDS011;1352;48.446;9.156;2022-10-16T08:17:04;5.47;;;2.93;;
2684;SDS011;1352;48.446;9.156;2022-10-16T08:19:31;2.77;;;2.57;;
2684;SDS011;1352;48.446;9.156;2022-10-16T08:22:00;2.93;;;2.17;;
2684;SDS011;1352;48.446;9.156;2022-10-16T08:24:27;5.37;;;2.13;;
2684;SDS011;1352;48.446;9.156;2022-10-16T08:26:57;7.30;;;2.77;;
2684;SDS011;1352;48.446;9.156;2022-10-16T08:29:24;5.47;;;2.10;;
2684;SDS011;1352;48.446;9.156;2022-10-16T08:31:51;2.30;;;2.10;;
2684;SDS011;1352;48.446;9.156;2022-10-16T08:34:18;2.07;;;1.97;;
2684;SDS011;1352;48.446;9.156;2022-10-16T08:36:45;2.37;;;2.17;;
2684;SDS011;1352;48.446;9.156;2022-10-16T08:39:12;3.37;;;2.30;;
2684;SDS011;1352;48.446;9.156;2022-10-16T08:41:48;2.90;;;2.13;;
2684;SDS011;1352;48.446;9.156;2022-10-16T08:44:35;4.63;;;2.17;;
2684;SDS011;1352;48.446;9.156;2022-10-16T08:47:21;3.70;;;2.50;;
2684;SDS011;1352;48.446;9.156;2022-10-16T08:49:54;4.53;;;2.53;;
2684;SDS011;1352;48.446;9.156;2022-10-16T08:52:23;3.83;;;2.40;;
2684;SDS011;1352;48.446;9.156;2022-10-16T08:54:54;5.57;;;2.40;;
2684;SDS011;1352;48.446;9.156;2022-10-16T08:57:24;4.47;;;2.50;;
2684;SDS011;1352;48.446;9.156;2022-10-16T08:59:52;7.33;;;2.40;;
2684;SDS011;1352;48.446;9.156;2022-10-16T09:02:26;2.50;;;2.30;;
2684;SDS011;1352;48.446;9.156;2022-10-16T09:05:00;8.50;;;2.40;;
2684;SDS011;1352;48.446;9.156;2022-10-16T09:07:38;2.57;;;2.37;;
2684;SDS011;1352;48.446;9.156;2022-10-16T09:10:16;2.90;;;2.20;;
2684;SDS011;1352;48.446;9.156;2022-10-16T09:12:56;3.20;;;2.70;;
2684;SDS011;1352;48.446;9.156;2022-10-16T09:15:29;4.53;;;2.40;;
2684;SDS011;1352;48.446;9.156;2022-10-16T09:18:02;2.57;;;2.27;;
2684;SDS011;1352;48.446;9.156;2022-10-16T09:20:39;4.40;;;2.13;;
2684;SDS011;1352;48.446;9.156;2022-10-16T09:23:15;1.70;;;1.50;;
2684;SDS011;1352;48.446;9.156;2022-10-16T09:25:45;2.83;;;1.73;;
2684;SDS011;1352;48.446;9.156;2022-10-16T09:28:17;3.83;;;1.97;;
2684;SDS011;1352;48.446;9.156;2022-10-16T09:30:45;2.10;;;1.90;;
2684;SDS011;1352;48.446;9.156;2022-10-16T09:33:13;2.07;;;1.87;;
2684;SDS011;1352;48.446;9.156;2022-10-16T09:35:43;3.53;;;2.33;;
2684;SDS011;1352;48.446;9.156;2022-10-16T09:38:23;2.60;;;1.80;;
2684;SDS011;1352;48.446;9.156;2022-10-16T09:40:53;2.53;;;1.83;;
2684;SDS011;1352;48.446;9.156;2022-10-16T09:43:23;1.93;;;1.80;;
2684;SDS011;1352;48.446;9.156;2022-10-16T09:45:57;2.80;;;2.23;;
2684;SDS011;1352;48.446;9.156;2022-10-16T09:48:26;2.33;;;1.90;;
2684;SDS011;1352;48.446;9.156;2022-10-16T09:51:03;2.90;;;1.60;;
2684;SDS011;1352;48.446;9.156;2022-10-16T09:53:39;1.97;;;1.83;;
2684;SDS011;1352;48.446;9.156;2022-10-16T09:56:09;1.87;;;1.77;;
2684;SDS011;1352;48.446;9.156;2022-10-16T09:58:43;2.17;;;2.00;;
2684;SDS011;1352;48.446;9.156;2022-10-16T10:01:15;3.60;;;2.10;;
2684;SDS011;1352;48.446;9.156;2022-10-16T10:03:43;2.23;;;2.03;;
2684;SDS011;1352;48.446;9.156;2022-10-16T10:06:16;3.63;;;1.90;;
2684;SDS011;1352;48.446;9.156;2022-10-16T10:08:58;3.10;;;1.97;;
2684;SDS011;1352;48.446;9.156;2022-10-16T10:11:43;3.20;;;1.90;;
2684;SDS011;1352;48.446;9.156;2022-10-16T10:14:30;2.03;;;1.83;;
2684;SDS011;1352;48.446;9.156;2022-10-16T10:17:11;3.13;;;1.97;;
2684;SDS011;1352;48.446;9.156;2022-10-16T10:19:41;2.23;;;1.80;;
2684;SDS011;1352;48.446;9.156;2022-10-16T10:27:56;2.10;;;1.60;;
2684;SDS011;1352;48.446;9.156;2022-10-16T10:30:37;2.73;;;1.60;;
2684;SDS011;1352;48.446;9.156;2022-10-16T10:33:12;2.20;;;1.37;;
2684;SDS011;1352;48.446;9.156;2022-10-16T10:35:49;1.90;;;1.57;;
2684;SDS011;1352;48.446;9.156;2022-10-16T10:38:25;3.27;;;1.43;;
2684;SDS011;1352;48.446;9.156;2022-10-16T10:41:00;2.60;;;1.73;;
2684;SDS011;1352;48.446;9.156;2022-10-16T10:43:47;6.20;;;2.20;;
2684;SDS011;1352;48.446;9.156;2022-10-16T10:46:28;1.80;;;1.70;;
2684;SDS011;1352;48.446;9.156;2022-10-16T10:49:04;3.40;;;1.60;;
2684;SDS011;1352;48.446;9.156;2022-10-16T10:51:44;2.30;;;2.10;;
2684;SDS011;1352;48.446;9.156;2022-10-16T10:54:23;2.10;;;1.90;;
2684;SDS011;1352;48.446;9.156;2022-10-16T10:56:57;1.70;;;1.60;;
2684;SDS011;1352;48.446;9.156;2022-10-16T10:59:32;3.10;;;2.23;;
2684;SDS011;1352;48.446;9.156;2022-10-16T11:02:22;4.60;;;2.20;;
2684;SDS011;1352;48.446;9.156;2022-10-16T11:05:04;1.97;;;1.87;;
2684;SDS011;1352;48.446;9.156;2022-10-16T11:07:53;2.70;;;1.90;;
2684;SDS011;1352;48.446;9.156;2022-10-16T11:10:26;3.40;;;2.20;;
2684;SDS011;1352;48.446;9.156;2022-10-16T11:12:57;2.10;;;1.90;;
2684;SDS011;1352;48.446;9.156;2022-10-16T11:15:34;1.60;;;1.50;;
2684;SDS011;1352;48.446;9.156;2022-10-16T11:18:08;3.40;;;2.00;;
2684;SDS011;1352;48.446;9.156;2022-10-16T11:20:42;2.10;;;1.90;;
2684;SDS011;1352;48.446;9.156;2022-10-16T11:23:16;6.43;;;2.30;;
2684;SDS011;1352;48.446;9.156;2022-10-16T11:25:46;5.50;;;2.33;;
2684;SDS011;1352;48.446;9.156;2022-10-16T11:28:16;2.73;;;2.03;;
2684;SDS011;1352;48.446;9.156;2022-10-16T11:30:49;2.20;;;2.10;;
2684;SDS011;1352;48.446;9.156;2022-10-16T11:33:27;2.67;;;2.37;;
2684;SDS011;1352;48.446;9.156;2022-10-16T11:35:59;3.67;;;2.40;;
2684;SDS011;1352;48.446;9.156;2022-10-16T11:38:31;2.10;;;1.90;;
2684;SDS011;1352;48.446;9.156;2022-10-16T11:41:04;2.43;;;1.83;;
2684;SDS011;1352;48.446;9.156;2022-10-16T11:43:42;4.00;;;2.27;;
2684;SDS011;1352;48.446;9.156;2022-10-16T11:46:15;3.23;;;2.13;;
2684;SDS011;1352;48.446;9.156;2022-10-16T11:48:48;2.33;;;2.13;;
2684;SDS011;1352;48.446;9.156;2022-10-16T11:51:21;2.87;;;2.27;;
2684;SDS011;1352;48.446;9.156;2022-10-16T11:53:57;2.73;;;2.37;;
2684;SDS011;1352;48.446;9.156;2022-10-16T11:56:29;8.87;;;2.60;;
2684;SDS011;1352;48.446;9.156;2022-10-16T11:59:04;2.37;;;2.17;;
2684;SDS011;1352;48.446;9.156;2022-10-16T12:01:37;3.10;;;2.60;;
2684;SDS011;1352;48.446;9.156;2022-10-16T12:04:16;3.80;;;2.63;;
2684;SDS011;1352;48.446;9.156;2022-10-16T12:06:49;2.43;;;2.33;;
2684;SDS011;1352;48.446;9.156;2022-10-16T12:09:22;2.80;;;2.50;;
2684;SDS011;1352;48.446;9.156;2022-10-16T12:11:54;4.73;;;2.27;;
2684;SDS011;1352;48.446;9.156;2022-10-16T12:14:32;3.73;;;2.07;;
2684;SDS011;1352;48.446;9.156;2022-10-16T12:17:02;3.63;;;2.50;;
2684;SDS011;1352;48.446;9.156;2022-10-16T12:19:33;2.30;;;2.20;;
2684;SDS011;1352;48.446;9.156;2022-10-16T12:22:01;3.00;;;2.43;;
2684;SDS011;1352;48.446;9.156;2022-10-16T12:24:32;4.13;;;2.10;;
2684;SDS011;1352;48.446;9.156;2022-10-16T12:27:02;3.23;;;2.50;;
2684;SDS011;1352;48.446;9.156;2022-10-16T12:29:32;3.80;;;2.67;;
2684;SDS011;1352;48.446;9.156;2022-10-16T12:32:03;2.57;;;2.37;;
2684;SDS011;1352;48.446;9.156;2022-10-16T12:34:38;4.30;;;2.53;;
2684;SDS011;1352;48.446;9.156;2022-10-16T12:37:11;2.60;;;2.40;;
2684;SDS011;1352;48.446;9.156;2022-10-16T12:39:41;3.80;;;3.23;;
2684;SDS011;1352;48.446;9.156;2022-10-16T12:42:22;3.70;;;2.80;;
2684;SDS011;1352;48.446;9.156;2022-10-16T12:44:58;3.17;;;2.23;;
2684;SDS011;1352;48.446;9.156;2022-10-16T12:47:35;5.83;;;2.50;;
2684;SDS011;1352;48.446;9.156;2022-10-16T12:52:56;3.17;;;2.70;;
2684;SDS011;1352;48.446;9.156;2022-10-16T12:55:23;5.50;;;3.23;;
2684;SDS011;1352;48.446;9.156;2022-10-16T12:58:00;4.03;;;2.47;;
2684;SDS011;1352;48.446;9.156;2022-10-16T13:00:38;5.03;;;2.87;;
2684;SDS011;1352;48.446;9.156;2022-10-16T13:06:16;3.30;;;2.67;;
2684;SDS011;1352;48.446;9.156;2022-10-16T13:09:01;5.27;;;2.63;;
2684;SDS011;1352;48.446;9.156;2022-10-16T13:11:45;3.63;;;2.53;;
2684;SDS011;1352;48.446;9.156;2022-10-16T13:14:26;2.80;;;2.50;;
2684;SDS011;1352;48.446;9.156;2022-10-16T13:17:11;2.87;;;2.60;;
2684;SDS011;1352;48.446;9.156;2022-10-16T13:19:45;3.20;;;2.90;;
2684;SDS011;1352;48.446;9.156;2022-10-16T13:22:21;3.07;;;2.77;;
2684;SDS011;1352;48.446;9.156;2022-10-16T13:24:59;2.37;;;2.17;;
2684;SDS011;1352;48.446;9.156;2022-10-16T13:27:41;3.83;;;3.30;;
2684;SDS011;1352;48.446;9.156;2022-10-16T13:30:16;2.63;;;2.43;;
2684;SDS011;1352;48.446;9.156;2022-10-16T13:32:46;3.90;;;2.80;;
2684;SDS011;1352;48.446;9.156;2022-10-16T13:35:18;2.80;;;2.60;;
2684;SDS011;1352;48.446;9.156;2022-10-16T13:37:49;6.17;;;2.87;;
2684;SDS011;1352;48.446;9.156;2022-10-16T13:40:20;3.40;;;3.10;;
2684;SDS011;1352;48.446;9.156;2022-10-16T13:42:49;8.53;;;3.30;;
2684;SDS011;1352;48.446;9.156;2022-10-16T13:45:17;3.73;;;3.20;;
2684;SDS011;1352;48.446;9.156;2022-10-16T13:47:45;2.67;;;2.47;;
2684;SDS011;1352;48.446;9.156;2022-10-16T13:50:13;3.00;;;2.70;;
2684;SDS011;1352;48.446;9.156;2022-10-16T13:52:41;2.93;;;2.53;;
2684;SDS011;1352;48.446;9.156;2022-10-16T13:55:11;3.70;;;3.13;;
2684;SDS011;1352;48.446;9.156;2022-10-16T13:57:39;2.27;;;1.93;;
2684;SDS011;1352;48.446;9.156;2022-10-16T14:00:20;4.17;;;2.97;;
2684;SDS011;1352;48.446;9.156;2022-10-16T14:02:50;5.80;;;3.00;;
2684;SDS011;1352;48.446;9.156;2022-10-16T14:05:22;3.20;;;2.43;;
2684;SDS011;1352;48.446;9.156;2022-10-16T14:07:49;3.00;;;2.73;;
2684;SDS011;1352;48.446;9.156;2022-10-16T14:10:20;6.60;;;3.10;;
2684;SDS011;1352;48.446;9.156;2022-10-16T14:13:00;3.00;;;2.47;;
2684;SDS011;1352;48.446;9.156;2022-10-16T14:15:30;3.50;;;2.30;;
2684;SDS011;1352;48.446;9.156;2022-10-16T14:17:58;4.43;;;3.30;;
2684;SDS011;1352;48.446;9.156;2022-10-16T14:20:27;5.03;;;2.67;;
2684;SDS011;1352;48.446;9.156;2022-10-16T14:23:00;3.90;;;2.33;;
2684;SDS011;1352;48.446;9.156;2022-10-16T14:25:30;5.10;;;2.57;;
2684;SDS011;1352;48.446;9.156;2022-10-16T14:27:59;3.60;;;2.70;;
2684;SDS011;1352;48.446;9.156;2022-10-16T14:30:29;3.23;;;2.90;;
2684;SDS011;1352;48.446;9.156;2022-10-16T14:32:58;8.70;;;3.37;;
2684;SDS011;1352;48.446;9.156;2022-10-16T14:35:28;4.17;;;3.30;;
2684;SDS011;1352;48.446;9.156;2022-10-16T14:37:57;2.97;;;2.53;;
2684;SDS011;1352;48.446;9.156;2022-10-16T14:40:26;9.70;;;3.00;;
2684;SDS011;1352;48.446;9.156;2022-10-16T14:42:56;3.63;;;3.00;;
2684;SDS011;1352;48.446;9.156;2022-10-16T14:45:26;4.93;;;2.60;;
2684;SDS011;1352;48.446;9.156;2022-10-16T14:47:55;4.63;;;3.13;;
2684;SDS011;1352;48.446;9.156;2022-10-16T14:50:24;5.37;;;2.90;;
2684;SDS011;1352;48.446;9.156;2022-10-16T14:52:51;3.10;;;2.57;;
2684;SDS011;1352;48.446;9.156;2022-10-16T14:55:18;7.50;;;2.90;;
2684;SDS011;1352;48.446;9.156;2022-10-16T14:57:45;8.30;;;2.93;;
2684;SDS011;1352;48.446;9.156;2022-10-16T15:00:16;3.70;;;2.70;;
2684;SDS011;1352;48.446;9.156;2022-10-16T15:02:45;4.30;;;3.20;;
2684;SDS011;1352;48.446;9.156;2022-10-16T15:05:15;4.97;;;2.70;;
2684;SDS011;1352;48.446;9.156;2022-10-16T15:07:44;3.13;;;2.47;;
2684;SDS011;1352;48.446;9.156;2022-10-16T15:10:12;4.57;;;3.70;;
2684;SDS011;1352;48.446;9.156;2022-10-16T15:12:39;7.67;;;3.27;;
2684;SDS011;1352;48.446;9.156;2022-10-16T15:15:21;3.03;;;2.80;;
2684;SDS011;1352;48.446;9.156;2022-10-16T15:17:53;4.90;;;3.13;;
2684;SDS011;1352;48.446;9.156;2022-10-16T15:20:22;4.43;;;3.03;;
2684;SDS011;1352;48.446;9.156;2022-10-16T15:22:50;3.07;;;2.60;;
2684;SDS011;1352;48.446;9.156;2022-10-16T15:25:29;3.20;;;2.83;;
2684;SDS011;1352;48.446;9.156;2022-10-16T15:27:58;5.40;;;3.00;;
2684;SDS011;1352;48.446;9.156;2022-10-16T15:30:27;3.83;;;2.83;;
2684;SDS011;1352;48.446;9.156;2022-10-16T15:32:55;7.50;;;3.20;;
2684;SDS011;1352;48.446;9.156;2022-10-16T15:35:22;3.83;;;2.57;;
2684;SDS011;1352;48.446;9.156;2022-10-16T15:37:49;5.70;;;2.20;;
2684;SDS011;1352;48.446;9.156;2022-10-16T15:40:17;3.77;;;3.13;;
2684;SDS011;1352;48.446;9.156;2022-10-16T15:42:44;7.50;;;3.10;;
2684;SDS011;1352;48.446;9.156;2022-10-16T15:45:12;4.17;;;3.10;;
2684;SDS011;1352;48.446;9.156;2022-10-16T15:47:41;7.07;;;2.87;;
2684;SDS011;1352;48.446;9.156;2022-10-16T15:50:09;9.53;;;2.70;;
2684;SDS011;1352;48.446;9.156;2022-10-16T15:52:38;3.80;;;3.17;;